Flight Track Log - Related Links

Times and Time Zones

All times are in EDT time to prevent confusion due to time zone crossing. See the AAY841 flight status page for this flight to view local times or setup timezone preferences in your user account.

Time Position Orientation Groundspeed Altitude Reporting Facility
EDT Latitude Longitude Course Direction KTS MPH feet Rate Location/Type
Sun 09:05:40 AM 36.4025 -82.4522 175° South 225 259 4,300  Level Atlanta Center
Sun 09:06:40 AM 36.3272 -82.4408 173° South 288 331 6,600 2,550 Climbing Atlanta Center
Sun 09:07:40 AM 36.2375 -82.4247 172° South 319 367 9,400 2,250 Climbing Atlanta Center
Sun 09:08:40 AM 36.1392 -82.4061 171° South 345 397 11,100 1,950 Climbing Atlanta Center
Sun 09:09:40 AM 36.0242 -82.3853 172° South 396 456 13,300 2,221 Climbing Atlanta Center
Sun 09:10:00 AM 35.8094 -82.4312 175° South  Level Estimated
Sun 09:16:22 AM 35.1865 -82.2947 176° South 452 520 28,200  Level FlightAware ADS-B (KDZJ)
Sun 09:18:43 AM 34.8755 -82.2665 176° South 481 554 30,900 1,194 Climbing FlightAware ADS-B (KDZJ)
Sun 09:19:38 AM 34.7533 -82.2553 176° South 481 554 32,100 1,237 Climbing FlightAware ADS-B (KDZJ)
Sun 09:20:20 AM 34.6616 -82.2470 176° South 483 556 32,900 1,137 Climbing FlightAware ADS-B (KDZJ)
Sun 09:21:13 AM 34.5435 -82.2364 176° South 483 556 33,900 857 Climbing FlightAware ADS-B (KDZJ)
Sun 09:22:40 AM 34.4008 -82.2236 176° South 476 548 34,900 776 Climbing Atlanta Center
Sun 09:23:40 AM 34.2711 -82.2139 176° South 476 548 35,800 550 Climbing Atlanta Center
Sun 09:24:40 AM 34.1478 -82.2014 175° South 465 535 36,000 100 Climbing Atlanta Center
Sun 09:25:40 AM 34.0225 -82.1917 176° South 460 529 36,000  Level Atlanta Center
Sun 09:26:40 AM 33.8992 -82.1767 174° South 460 529 36,000  Level Atlanta Center
Sun 09:27:40 AM 33.7736 -82.1669 176° South 460 529 36,000  Level Atlanta Center
Sun 09:28:40 AM 33.6486 -82.1697 181° South 460 529 36,000  Level Atlanta Center
Sun 09:29:40 AM 33.5256 -82.1897 188° South 455 524 36,000  Level Atlanta Center
Sun 09:30:40 AM 33.4050 -82.2122 189° South 455 524 36,000  Level Atlanta Center
Sun 09:31:40 AM 33.2822 -82.2322 188° South 450 518 36,000  Level Atlanta Center
Sun 09:32:40 AM 33.1592 -82.2522 188° South 450 518 36,000  Level Atlanta Center
Sun 09:33:40 AM 33.0364 -82.2697 187° South 445 512 36,000  Level Atlanta Center
Sun 09:36:10 AM 32.7372 -82.3172 188° South 450 518 36,000 29 Level Jacksonville Center
Sun 09:37:10 AM 32.6078 -82.3378 188° South 460 529 36,100 50 Climbing Jacksonville Center
Sun 09:38:10 AM 32.4786 -82.3606 188° South 472 543 36,100 -33 Level Jacksonville Center
Sun 09:40:10 AM 32.2178 -82.4014 188° South 457 526 36,000 -33 Descending Jacksonville Center
Sun 09:41:10 AM 32.0883 -82.4217 188° South 463 533 36,000  Level Jacksonville Center
Sun 09:42:10 AM 31.9842 -82.4369 187° South 458 527 36,000  Level Jacksonville Center
Sun 09:43:11 AM 31.8608 -82.4572 188° South 458 527 36,000  Level Jacksonville Center
Sun 09:44:11 AM 31.7378 -82.4750 187° South 453 521 36,000  Level Jacksonville Center
Sun 09:45:10 AM 31.6125 -82.4950 188° South 448 516 36,000  Level Jacksonville Center
Sun 09:46:10 AM 31.4875 -82.5100 186° South 448 516 36,000  Level Jacksonville Center
Sun 09:47:10 AM 31.3475 -82.5181 183° South 464 534 36,000  Level Jacksonville Center
Sun 09:48:10 AM 31.2222 -82.5233 182° South 464 534 36,000  Level Jacksonville Center
Sun 09:49:10 AM 31.0969 -82.5286 182° South 459 528 36,000  Level Jacksonville Center
Sun 09:50:11 AM 30.9717 -82.5339 182° South 459 528 36,000  Level Jacksonville Center
Sun 09:55:46 AM 30.2592 -82.5005 170° South 468 539 36,000 -63 Level FlightAware ADS-B
Sun 09:56:35 AM 30.1491 -82.4774 170° South 466 536 35,600 -667 Descending FlightAware ADS-B
Sun 09:57:16 AM 30.0631 -82.4590 169° South 458 527 35,000 -1,014 Descending FlightAware ADS-B
Sun 09:57:46 AM 30.0014 -82.4459 170° South 453 521 34,400 -1,200 Descending FlightAware ADS-B
Sun 09:58:16 AM 29.9393 -82.4329 170° South 451 519 33,800 -1,800 Descending FlightAware ADS-B
Sun 09:58:46 AM 29.8867 -82.4218 170° South 444 511 32,600 -2,348 Descending FlightAware ADS-B
Sun 09:59:25 AM 29.7981 -82.4028 170° South 437 503 31,100 -2,314 Descending FlightAware ADS-B
Sun 09:59:56 AM 29.7415 -82.3909 170° South 432 497 29,900 -2,328 Descending FlightAware ADS-B
Sun 10:00:32 AM 29.6669 -82.3754 170° South 427 491 28,500 -2,200 Descending FlightAware ADS-B
Sun 10:01:26 AM 29.5640 -82.3557 174° South 406 467 26,600 -1,906 Descending FlightAware ADS-B
Sun 10:01:57 AM 29.5066 -82.3488 174° South 397 457 25,800 -1,521 Descending FlightAware ADS-B
Sun 10:02:37 AM 29.4341 -82.3401 174° South 394 453 24,800 -1,560 Descending FlightAware ADS-B
Sun 10:03:37 AM 29.3252 -82.3272 174° South 387 445 23,200 -1,758 Descending FlightAware ADS-B
Sun 10:04:16 AM 29.2560 -82.3189 174° South 382 440 21,900 -1,925 Descending FlightAware ADS-B
Sun 10:06:16 AM 29.0470 -82.2940 174° South 370 426 18,100 -1,863 Descending FlightAware ADS-B
Sun 10:07:55 AM 28.8803 -82.2742 174° South 363 418 15,100 -1,956 Descending FlightAware ADS-B
Sun 10:08:31 AM 28.8206 -82.2672 174° South 362 417 13,700 -1,114 Descending FlightAware ADS-B
Sun 10:10:15 AM 28.6489 -82.2562 179° South 346 398 12,500 -800 Descending FlightAware ADS-B
Sun 10:11:01 AM 28.5770 -82.2607 211° Southwest 321 369 11,700 -701 Descending FlightAware ADS-B
Sun 10:11:32 AM 28.5500 -82.3000 211° Southwest 316 364 11,600 -659 Descending Tampa TRACON
Sun 10:12:32 AM 28.5000 -82.3833 236° Southwest 303 349 10,700 -750 Descending Tampa TRACON
Sun 10:13:32 AM 28.4667 -82.4500 240° Southwest 289 333 10,100 -300 Descending Tampa TRACON
Sun 10:14:32 AM 28.4167 -82.5333 236° Southwest 297 342 10,100 -500 Level Tampa TRACON
Sun 10:15:32 AM 28.3667 -82.6167 236° Southwest 284 327 9,100 -1,150 Descending Tampa TRACON
Sun 10:16:32 AM 28.3333 -82.6833 240° Southwest 284 327 7,800 -1,000 Descending Tampa TRACON
Sun 10:17:32 AM 28.2833 -82.7500 230° Southwest 280 322 7,100 -495 Descending Tampa TRACON
Sun 10:18:21 AM 28.2167 -82.7667 192° South 311 358 6,900 -522 Descending Tampa TRACON
Sun 10:19:27 AM 28.1167 -82.7667 180° South 312 359 6,100 -524 Descending Tampa TRACON
Sun 10:20:27 AM 28.0333 -82.7833 190° South 303 349 5,800 -500 Descending Tampa TRACON
Sun 10:21:27 AM 27.9667 -82.7667 168° South 244 281 5,100 -900 Descending Tampa TRACON
Sun 10:22:27 AM 27.9000 -82.7667 180° South 211 243 4,000 -1,400 Descending Tampa TRACON
Sun 10:23:27 AM 27.8500 -82.7500 164° South 211 243 2,300 -1,368 Descending Tampa TRACON
Sun 10:24:21 AM 27.8333 -82.7000 111° Southeast 157 181 1,400 -789 Descending Tampa TRACON
Sun 10:25:21 AM 27.8667 -82.6833 24° Northeast 118 136 800 -600 Descending Tampa TRACON
Sun 10:27:00 AM 27.9000 -82.6833 310° West  Level FlightAware Approximate
Sun 10:34:00 AM 27.9100 -82.6875 310° West  Level Estimated
Sun 10:35:00 AM 27.9100 -82.6875 310° West  Level Estimated

Login

Don't have an account? Register now (free) for customized features, flight alerts, and more!